Time;durP1;ratioP1;P1;durP2;ratioP2;P2;SDS_P1;SDS_P2;PMS_P1;PMS_P2;Temp;Humidity;BMP_temperature;BMP_pressure;BME280_temperature;BME280_humidity;BME280_pressure;Samples;Min_cycle;Max_cycle;Signal;HPM_P1;HPM_P2
2023/07/16 00:01:27;;;;;;;;;41.25;37.25;;;;;20.36;52.63;101112.13;5090268;27;45408;-71
2023/07/16 00:03:52;;;;;;;;;35.75;34.00;;;;;20.43;52.48;101138.38;5102266;27;46363;-71
2023/07/16 00:06:18;;;;;;;;;57.50;48.25;;;;;20.43;53.14;101138.38;5101771;27;45601;-71
2023/07/16 00:08:43;;;;;;;;;46.50;40.75;;;;;20.34;52.85;101132.91;5096092;27;45354;-71
2023/07/16 00:11:08;;;;;;;;;36.33;33.67;;;;;20.34;53.66;101133.75;5101186;27;45369;-71
2023/07/16 00:13:34;;;;;;;;;52.00;44.50;;;;;20.22;53.93;101124.00;5087880;27;45225;-71
2023/07/16 00:15:59;;;;;;;;;49.33;42.00;;;;;20.28;54.57;101134.28;5100475;27;45353;-71
2023/07/16 00:18:25;;;;;;;;;48.00;41.50;;;;;20.25;53.91;101138.00;5073479;28;48089;-71
2023/07/16 00:20:50;;;;;;;;;59.75;49.50;;;;;20.21;53.65;101141.94;5097349;27;45328;-71
2023/07/16 00:23:15;;;;;;;;;49.25;41.75;;;;;20.15;54.98;101126.34;5090333;27;45339;-71
2023/07/16 00:25:41;;;;;;;;;45.00;39.33;;;;;20.17;54.11;101128.88;5088997;27;45232;-71
2023/07/16 00:28:06;;;;;;;;;52.00;44.75;;;;;20.05;54.45;101111.09;5093337;27;46367;-71
2023/07/16 00:30:32;;;;;;;;;55.75;47.50;;;;;20.09;54.83;101123.31;5098307;27;45448;-71
2023/07/16 00:32:57;;;;;;;;;50.25;43.75;;;;;20.07;54.81;101125.25;5101818;27;45759;-71
2023/07/16 00:35:22;;;;;;;;;60.50;50.25;;;;;20.05;54.87;101130.75;5087184;27;45376;-71
2023/07/16 00:37:48;;;;;;;;;60.00;49.00;;;;;20.04;55.54;101142.47;5102245;27;46077;-71
2023/07/16 00:40:13;;;;;;;;;60.33;50.67;;;;;20.01;55.54;101139.16;5102164;27;45261;-72
2023/07/16 00:42:39;;;;;;;;;57.33;48.00;;;;;19.94;55.58;101132.59;5100108;27;45420;-71
2023/07/16 00:45:11;;;;;;;;;34.75;32.50;;;;;19.96;56.02;101136.84;5101995;27;45404;-71
2023/07/16 00:47:36;;;;;;;;;55.25;46.50;;;;;19.91;56.62;101132.84;5092466;27;45322;-71
2023/07/16 00:50:02;;;;;;;;;36.00;34.00;;;;;19.94;57.00;101137.97;5093314;27;45461;-71
2023/07/16 00:52:28;;;;;;;;;19.75;19.75;;;;;19.88;56.60;101135.78;5086451;27;45808;-71
2023/07/16 00:54:53;;;;;;;;;26.25;26.25;;;;;19.88;57.25;101143.81;5095088;27;45393;-71
2023/07/16 00:57:19;;;;;;;;;33.25;31.75;;;;;19.74;56.83;101118.94;5096361;27;46291;-71
2023/07/16 00:59:44;;;;;;;;;57.67;48.33;;;;;19.71;57.75;101124.56;5081234;27;45314;-71
2023/07/16 01:02:13;;;;;;;;;58.33;48.33;;;;;19.71;57.85;101140.66;5084560;27;45385;-71
2023/07/16 01:04:38;;;;;;;;;57.33;48.33;;;;;19.68;58.18;101137.38;5080419;28;45693;-71
2023/07/16 01:07:08;;;;;;;;;59.25;48.00;;;;;19.63;57.74;101128.84;5096971;27;45332;-72
2023/07/16 01:09:36;;;;;;;;;61.00;51.00;;;;;19.67;57.83;101149.06;5080489;27;45714;-71
2023/07/16 01:12:03;;;;;;;;;55.75;46.75;;;;;19.62;58.91;101132.50;5096880;27;45286;-71
2023/07/16 01:14:30;;;;;;;;;51.25;44.25;;;;;19.61;58.09;101141.50;5083811;27;45429;-71
2023/07/16 01:16:58;;;;;;;;;56.50;46.75;;;;;19.58;58.74;101139.94;5100273;27;46255;-71
2023/07/16 01:19:25;;;;;;;;;55.00;46.33;;;;;19.58;58.85;101155.16;5100734;27;45229;-71
2023/07/16 01:21:59;;;;;;;;;55.75;47.00;;;;;19.54;58.81;101145.66;5089794;27;45440;-72
2023/07/16 01:24:49;;;;;;;;;56.00;46.67;;;;;19.50;59.41;101152.25;5100592;27;45576;-72
2023/07/16 01:27:27;;;;;;;;;57.75;48.75;;;;;19.42;59.67;101143.94;5088280;27;45505;-71
2023/07/16 01:30:02;;;;;;;;;57.25;48.50;;;;;19.37;59.12;101151.47;5093276;27;45443;-72
2023/07/16 01:32:31;;;;;;;;;55.00;46.75;;;;;19.39;60.02;101166.47;5101110;27;45433;-71
2023/07/16 01:34:57;;;;;;;;;62.33;48.67;;;;;19.36;60.45;101165.84;5070089;27;45421;-72
2023/07/16 01:37:23;;;;;;;;;58.25;48.50;;;;;19.30;60.86;101171.69;5100327;27;46354;-72
2023/07/16 01:39:49;;;;;;;;;56.00;47.33;;;;;19.28;60.24;101169.13;5095072;27;45320;-72
2023/07/16 01:42:14;;;;;;;;;55.00;46.00;;;;;19.30;60.71;101167.19;5096729;27;45239;-72
2023/07/16 01:44:40;;;;;;;;;59.25;48.25;;;;;19.29;60.78;101167.28;5097009;27;45466;-72
2023/07/16 01:47:10;;;;;;;;;51.00;42.75;;;;;19.24;60.90;101175.69;5074689;27;46736;-72
2023/07/16 01:49:36;;;;;;;;;61.00;50.00;;;;;19.21;62.08;101175.94;5097272;27;45639;-72
2023/07/16 01:52:03;;;;;;;;;56.00;47.00;;;;;19.23;61.86;101180.22;5096613;27;45497;-72
2023/07/16 01:54:29;;;;;;;;;57.67;47.33;;;;;19.17;61.65;101164.59;5097744;27;45309;-72
2023/07/16 01:56:54;;;;;;;;;51.50;43.00;;;;;19.02;61.72;101163.09;5100139;27;45408;-72
2023/07/16 01:59:20;;;;;;;;;52.25;43.25;;;;;19.07;62.45;101182.38;5092169;27;45414;-72
2023/07/16 02:01:45;;;;;;;;;50.75;40.50;;;;;19.07;63.27;101177.00;5095184;27;45340;-72
2023/07/16 02:04:11;;;;;;;;;46.25;39.25;;;;;19.03;62.60;101178.22;5096635;27;45512;-73
2023/07/16 02:06:36;;;;;;;;;43.00;37.25;;;;;18.91;63.41;101160.38;5085775;27;45714;-71
2023/07/16 02:09:01;;;;;;;;;40.75;35.75;;;;;18.97;63.67;101184.03;5079343;27;45420;-72
2023/07/16 02:11:27;;;;;;;;;41.75;35.25;;;;;18.95;63.91;101179.75;5098496;27;45941;-72
2023/07/16 02:13:52;;;;;;;;;49.33;41.33;;;;;18.90;64.26;101177.44;5098456;27;45279;-72
2023/07/16 02:16:18;;;;;;;;;46.67;39.33;;;;;18.86;64.42;101180.44;5098416;27;46018;-72
2023/07/16 02:18:43;;;;;;;;;34.75;33.50;;;;;18.88;64.28;101192.75;5100349;27;45286;-71
2023/07/16 02:21:08;;;;;;;;;47.33;39.00;;;;;18.83;64.70;101191.41;5100392;27;45377;-71
2023/07/16 02:23:34;;;;;;;;;48.00;41.50;;;;;18.85;64.71;101200.22;5100443;27;45241;-72
2023/07/16 02:25:59;;;;;;;;;49.67;42.00;;;;;18.82;65.05;101197.72;5099625;27;46086;-72
2023/07/16 02:28:24;;;;;;;;;51.00;43.25;;;;;18.81;64.81;101202.25;5093698;27;45385;-71
2023/07/16 02:30:50;;;;;;;;;53.00;44.33;;;;;18.68;66.12;101180.03;5094346;27;45299;-72
2023/07/16 02:33:16;;;;;;;;;42.33;36.33;;;;;18.67;65.19;101194.38;5100115;27;45424;-72
2023/07/16 02:35:48;;;;;;;;;49.67;42.67;;;;;18.75;65.25;101208.03;5099775;27;46226;-72
2023/07/16 02:38:14;;;;;;;;;53.00;44.33;;;;;18.72;65.80;101216.31;5099293;27;45239;-71
2023/07/16 02:40:47;;;;;;;;;53.67;45.33;;;;;18.69;65.10;101225.44;5099919;27;45492;-72
2023/07/16 02:43:13;;;;;;;;;54.00;44.00;;;;;18.68;65.67;101218.38;5100338;27;45468;-72
2023/07/16 02:45:39;;;;;;;;;53.00;44.67;;;;;18.62;66.17;101208.13;5098090;27;45407;-71
2023/07/16 02:48:06;;;;;;;;;51.00;43.00;;;;;18.63;66.34;101219.69;5100159;27;45262;-71
2023/07/16 02:50:35;;;;;;;;;51.25;43.75;;;;;18.50;66.02;101208.16;5100226;27;45299;-72
2023/07/16 02:53:02;;;;;;;;;54.67;45.33;;;;;18.44;66.26;101205.91;5099925;27;45230;-72
2023/07/16 02:55:30;;;;;;;;;48.67;40.33;;;;;18.52;67.06;101219.66;5099450;27;45289;-72
2023/07/16 02:57:56;;;;;;;;;50.00;42.67;;;;;18.49;66.40;101228.72;5079353;28;45267;-72
2023/07/16 03:00:21;;;;;;;;;49.00;42.00;;;;;18.34;67.30;101196.84;5095654;27;45416;-71
2023/07/16 03:02:46;;;;;;;;;52.33;44.33;;;;;18.44;67.62;101221.97;5095786;27;45361;-72
2023/07/16 03:05:12;;;;;;;;;52.67;43.00;;;;;18.40;67.69;101207.97;5081422;27;48150;-71
2023/07/16 03:07:37;;;;;;;;;50.33;41.33;;;;;18.41;67.38;101220.41;5090254;27;45340;-72
2023/07/16 03:10:03;;;;;;;;;49.67;41.67;;;;;18.37;67.69;101218.03;5100965;27;45581;-72
2023/07/16 03:12:28;;;;;;;;;53.00;43.00;;;;;18.35;68.18;101236.06;5095155;27;45471;-72
2023/07/16 03:14:54;;;;;;;;;53.67;44.33;;;;;18.31;68.08;101222.03;5096400;27;46395;-72
2023/07/16 03:17:21;;;;;;;;;53.00;44.67;;;;;18.29;68.69;101240.00;5096826;27;45338;-72
2023/07/16 03:19:47;;;;;;;;;56.50;47.25;;;;;18.30;68.92;101238.19;5080886;27;45412;-72
2023/07/16 03:22:13;;;;;;;;;55.00;45.00;;;;;18.28;68.61;101235.63;5097674;27;45469;-72
2023/07/16 03:24:38;;;;;;;;;54.33;45.33;;;;;18.26;68.69;101234.88;5096907;27;46170;-72
2023/07/16 03:27:04;;;;;;;;;49.33;41.67;;;;;18.19;69.00;101234.47;5094504;27;45253;-72
2023/07/16 03:29:29;;;;;;;;;53.50;44.50;;;;;18.16;69.13;101237.38;5091963;27;45231;-71
2023/07/16 03:31:55;;;;;;;;;51.00;41.50;;;;;18.04;70.16;101232.91;5102893;27;45413;-72
2023/07/16 03:34:21;;;;;;;;;53.00;42.67;;;;;18.17;70.70;101247.13;5102389;27;46217;-72
2023/07/16 03:36:47;;;;;;;;;53.50;44.50;;;;;18.08;70.85;101237.06;5099121;27;45440;-71
2023/07/16 03:39:12;;;;;;;;;52.67;44.00;;;;;18.13;70.50;101252.78;5103565;27;45216;-72
2023/07/16 03:41:37;;;;;;;;;54.67;45.00;;;;;18.07;70.40;101247.88;5099268;27;45581;-72
2023/07/16 03:44:03;;;;;;;;;47.00;40.00;;;;;18.05;70.75;101239.09;5089059;27;46268;-72
2023/07/16 03:46:28;;;;;;;;;44.00;36.00;;;;;18.02;71.28;101242.00;5095495;27;45145;-71
2023/07/16 03:48:54;;;;;;;;;41.00;35.25;;;;;17.98;71.46;101245.84;5084562;27;45507;-71
2023/07/16 03:51:19;;;;;;;;;34.00;31.25;;;;;17.88;72.05;101234.94;5101322;27;45390;-72
2023/07/16 03:53:45;;;;;;;;;44.33;37.67;;;;;17.91;71.92;101244.56;5081225;27;47212;-71
2023/07/16 03:56:10;;;;;;;;;38.75;34.25;;;;;17.88;73.03;101242.97;5083890;27;45278;-72
2023/07/16 03:58:36;;;;;;;;;41.33;35.33;;;;;17.91;73.37;101258.81;5101192;27;45342;-72
2023/07/16 04:01:01;;;;;;;;;46.75;39.25;;;;;17.85;73.42;101253.03;5073047;27;45320;-71
2023/07/16 04:03:27;;;;;;;;;47.33;41.00;;;;;17.83;73.34;101263.00;5084219;27;46852;-72
2023/07/16 04:06:00;;;;;;;;;40.50;36.25;;;;;17.79;73.61;101254.34;5095095;27;45308;-71
2023/07/16 04:08:25;;;;;;;;;47.00;40.00;;;;;17.82;73.68;101264.81;5102249;27;45596;-72
2023/07/16 04:10:51;;;;;;;;;39.33;34.67;;;;;17.67;74.08;101236.44;5090850;27;45429;-71
2023/07/16 04:13:16;;;;;;;;;43.00;35.25;;;;;17.75;74.45;101268.88;5088145;27;45383;-71
2023/07/16 04:15:42;;;;;;;;;39.25;35.25;;;;;17.77;74.77;101274.97;5099946;27;45322;-71
2023/07/16 04:18:07;;;;;;;;;34.67;32.67;;;;;17.77;74.27;101261.59;5085206;27;45877;-72
2023/07/16 04:20:33;;;;;;;;;34.50;31.75;;;;;17.78;75.24;101268.66;5100081;27;45520;-72
2023/07/16 04:22:59;;;;;;;;;47.67;41.00;;;;;17.78;74.30;101267.81;5101676;27;46038;-72
2023/07/16 04:25:24;;;;;;;;;41.00;36.50;;;;;17.68;75.00;101263.09;5095133;27;45567;-72
2023/07/16 04:27:49;;;;;;;;;40.75;36.25;;;;;17.76;75.37;101270.59;5088451;27;45948;-72
2023/07/16 04:30:15;;;;;;;;;49.00;39.67;;;;;17.73;76.33;101273.50;5085382;27;45378;-71
2023/07/16 04:32:40;;;;;;;;;38.25;33.75;;;;;17.73;75.71;101281.53;5091943;27;45237;-71
2023/07/16 04:35:06;;;;;;;;;41.75;35.50;;;;;17.65;75.91;101276.69;5103015;27;45254;-71
2023/07/16 04:37:32;;;;;;;;;41.00;36.00;;;;;17.74;75.12;101279.66;5102036;27;45204;-71
2023/07/16 04:39:57;;;;;;;;;43.75;36.25;;;;;17.75;77.01;101286.75;5088962;27;45435;-71
2023/07/16 04:42:23;;;;;;;;;41.50;34.75;;;;;17.64;76.49;101271.44;5086884;27;45997;-72
2023/07/16 04:44:48;;;;;;;;;21.50;21.50;;;;;17.66;76.81;101283.75;5100996;27;45338;-71
2023/07/16 04:47:14;;;;;;;;;45.33;39.00;;;;;17.72;76.73;101290.50;5092946;27;45763;-71
2023/07/16 04:49:39;;;;;;;;;45.67;37.67;;;;;17.62;76.72;101281.38;5093014;27;45409;-71
2023/07/16 04:52:05;;;;;;;;;40.75;35.25;;;;;17.74;76.90;101293.06;5099253;27;46099;-71
2023/07/16 04:54:35;;;;;;;;;38.50;34.25;;;;;17.74;76.29;101299.25;5079791;27;45349;-71
2023/07/16 04:57:01;;;;;;;;;16.00;13.25;;;;;17.73;77.26;101286.00;5101450;27;45263;-71
2023/07/16 04:59:26;;;;;;;;;46.00;39.00;;;;;17.78;77.00;101311.47;5098259;27;46215;-72
2023/07/16 05:01:52;;;;;;;;;30.25;28.50;;;;;17.79;77.37;101298.97;5091345;27;46103;-72
2023/07/16 05:04:20;;;;;;;;;45.00;37.00;;;;;17.80;76.93;101298.84;5080425;27;45331;-72
2023/07/16 05:06:45;;;;;;;;;35.25;32.25;;;;;17.83;77.24;101312.03;5083461;27;45341;-72
2023/07/16 05:09:13;;;;;;;;;41.75;35.50;;;;;17.83;77.25;101305.81;5095531;27;45429;-72
2023/07/16 05:11:39;;;;;;;;;39.25;34.75;;;;;17.90;77.89;101317.81;5100160;27;46136;-71
2023/07/16 05:14:04;;;;;;;;;41.33;36.33;;;;;17.98;77.55;101320.81;5098423;27;45451;-71
2023/07/16 05:16:30;;;;;;;;;47.00;39.00;;;;;17.97;76.75;101311.91;5102174;27;45268;-71
2023/07/16 05:18:55;;;;;;;;;35.50;33.25;;;;;18.03;76.89;101319.50;5093430;27;45241;-71
2023/07/16 05:21:21;;;;;;;;;32.75;27.00;;;;;18.02;77.10;101315.13;5100212;27;46513;-71
2023/07/16 05:23:46;;;;;;;;;48.00;39.33;;;;;18.10;77.35;101320.78;5101508;27;45241;-71
2023/07/16 05:26:11;;;;;;;;;50.67;42.00;;;;;18.18;76.93;101339.88;5101249;27;45303;-71
2023/07/16 05:28:37;;;;;;;;;30.67;30.00;;;;;18.20;77.08;101323.69;5101843;27;45393;-71
2023/07/16 05:31:03;;;;;;;;;37.00;33.75;;;;;18.27;76.71;101337.50;5101341;27;46807;-72
2023/07/16 05:33:29;;;;;;;;;45.67;37.33;;;;;18.28;76.61;101320.47;5101446;27;45254;-71
2023/07/16 05:35:55;;;;;;;;;38.75;33.25;;;;;18.31;76.93;101322.94;5096726;27;45504;-71
2023/07/16 05:38:21;;;;;;;;;43.25;37.25;;;;;18.41;77.87;101327.53;5088295;27;45308;-71
2023/07/16 05:40:46;;;;;;;;;48.67;39.33;;;;;18.44;76.35;101345.19;5100605;27;46095;-72
2023/07/16 05:43:13;;;;;;;;;48.67;41.00;;;;;18.45;76.38;101325.50;5101982;27;45460;-72
2023/07/16 05:45:38;;;;;;;;;44.00;37.25;;;;;18.53;76.07;101333.84;5101227;27;45484;-72
2023/07/16 05:48:04;;;;;;;;;50.00;39.50;;;;;18.62;76.33;101336.72;5100841;27;45488;-72
2023/07/16 05:50:29;;;;;;;;;52.75;40.50;;;;;18.60;76.79;101330.63;5102106;27;45416;-71
2023/07/16 05:52:55;;;;;;;;;38.00;33.00;;;;;18.71;77.92;101340.56;5100008;27;45282;-72
2023/07/16 05:55:20;;;;;;;;;42.33;37.00;;;;;18.77;75.87;101340.13;5101302;27;45227;-72
2023/07/16 05:57:48;;;;;;;;;43.67;37.00;;;;;18.79;75.89;101348.91;5100839;27;45367;-72
2023/07/16 06:00:14;;;;;;;;;48.75;40.75;;;;;18.80;77.42;101334.53;5099235;27;46412;-72
2023/07/16 06:02:39;;;;;;;;;46.67;39.33;;;;;18.76;75.79;101338.41;5091410;27;45327;-72
2023/07/16 06:05:08;;;;;;;;;48.33;41.33;;;;;18.83;75.40;101342.34;5099931;27;45301;-72
2023/07/16 06:07:34;;;;;;;;;36.25;34.00;;;;;19.03;76.99;101363.22;5098356;27;45446;-71
2023/07/16 06:09:59;;;;;;;;;45.75;38.75;;;;;19.11;76.77;101373.34;5082446;27;48217;-72
2023/07/16 06:12:28;;;;;;;;;45.25;37.00;;;;;19.14;74.90;101357.88;5100348;27;45185;-71
2023/07/16 06:14:53;;;;;;;;;43.75;38.00;;;;;19.20;74.38;101376.22;5094513;27;45290;-71
2023/07/16 06:17:19;;;;;;;;;51.75;42.75;;;;;19.20;75.23;101376.22;5085391;27;45196;-71
2023/07/16 06:19:44;;;;;;;;;53.25;43.50;;;;;19.19;74.48;101393.28;5100912;27;46215;-71
2023/07/16 06:22:09;;;;;;;;;44.50;37.75;;;;;19.11;74.71;101378.72;5082599;27;45405;-72
2023/07/16 06:24:35;;;;;;;;;54.67;45.67;;;;;19.13;74.11;101387.50;5094940;27;45424;-72
2023/07/16 06:27:00;;;;;;;;;363.67;359.00;;;;;19.08;73.33;101387.84;5099006;27;45425;-71
2023/07/16 06:29:26;;;;;;;;;49.67;41.33;;;;;18.97;74.06;101374.38;5092763;27;45909;-71
2023/07/16 06:31:58;;;;;;;;;43.25;35.75;;;;;19.10;75.62;101395.78;5080772;27;45326;-71
2023/07/16 06:34:25;;;;;;;;;42.75;37.75;;;;;18.99;75.33;101380.47;5080711;27;45312;-72
2023/07/16 06:36:50;;;;;;;;;44.50;38.25;;;;;19.10;75.17;101399.31;5082501;27;45326;-71
2023/07/16 06:39:16;;;;;;;;;43.50;38.50;;;;;19.11;75.88;101390.28;5090499;27;46276;-71
2023/07/16 06:41:41;;;;;;;;;38.75;35.75;;;;;19.15;76.99;101389.09;5074470;27;45414;-72
2023/07/16 06:44:07;;;;;;;;;45.50;39.50;;;;;19.23;77.47;101401.97;5094893;27;46178;-71
2023/07/16 06:46:35;;;;;;;;;48.67;41.67;;;;;19.28;74.40;101394.41;5093630;27;45767;-72
2023/07/16 06:49:00;;;;;;;;;52.67;42.67;;;;;19.30;73.58;101391.63;5080260;27;45266;-71
2023/07/16 06:51:26;;;;;;;;;33.25;31.00;;;;;19.31;74.21;101387.97;5089232;27;45412;-71
2023/07/16 06:53:51;;;;;;;;;51.67;42.67;;;;;19.33;74.12;101394.94;5100541;27;45603;-71
2023/07/16 06:56:16;;;;;;;;;46.00;38.33;;;;;19.31;72.93;101385.28;5089057;27;45435;-71
2023/07/16 06:58:42;;;;;;;;;48.50;40.00;;;;;19.41;74.35;101384.53;5092402;27;45419;-71
2023/07/16 07:01:07;;;;;;;;;49.00;41.00;;;;;19.53;72.29;101386.31;5092762;27;45347;-71
2023/07/16 07:03:33;;;;;;;;;42.75;34.50;;;;;19.72;73.86;101399.19;5094546;27;45239;-71
2023/07/16 07:06:03;;;;;;;;;41.50;37.00;;;;;19.92;71.78;101387.78;5102276;27;45227;-71
2023/07/16 07:08:31;;;;;;;;;49.67;40.67;;;;;19.98;69.82;101371.19;5085806;27;47618;-72
2023/07/16 07:10:57;;;;;;;;;35.33;33.33;;;;;20.17;70.23;101382.22;5103431;27;45425;-71
2023/07/16 07:13:24;;;;;;;;;47.67;39.33;;;;;20.29;68.97;101383.09;5104014;27;45281;-71
2023/07/16 07:15:52;;;;;;;;;35.25;31.75;;;;;20.52;69.14;101390.22;5087653;27;45374;-72
2023/07/16 07:18:18;;;;;;;;;23.25;23.25;;;;;20.63;69.03;101394.75;5096163;27;45908;-71
2023/07/16 07:20:43;;;;;;;;;27.50;25.25;;;;;20.64;67.86;101391.94;5091671;27;45345;-71
2023/07/16 07:23:08;;;;;;;;;34.25;31.50;;;;;20.65;67.25;101393.63;5085567;27;45667;-72
2023/07/16 07:25:34;;;;;;;;;22.50;21.00;;;;;20.73;67.12;101404.66;5103175;27;45392;-71
2023/07/16 07:28:02;;;;;;;;;21.50;20.25;;;;;20.57;65.97;101382.66;5090350;27;45476;-71
2023/07/16 07:30:28;;;;;;;;;17.25;15.25;;;;;20.74;66.80;101394.75;5101698;27;45330;-71
2023/07/16 07:32:56;;;;;;;;;31.50;31.00;;;;;20.90;63.65;101402.44;5089594;27;45649;-71
2023/07/16 07:35:22;;;;;;;;;24.75;24.75;;;;;21.13;65.92;101398.78;5094618;27;45546;-71
2023/07/16 07:37:47;;;;;;;;;30.50;28.00;;;;;21.20;64.98;101403.50;5101550;27;46010;-71
2023/07/16 07:40:15;;;;;;;;;36.75;32.50;;;;;21.31;63.58;101408.00;5099459;27;45445;-71
2023/07/16 07:42:41;;;;;;;;;36.33;33.67;;;;;21.36;62.76;101391.50;5088444;27;45475;-71
2023/07/16 07:45:07;;;;;;;;;32.67;31.33;;;;;21.45;62.70;101406.88;5093059;27;45389;-71
2023/07/16 07:47:33;;;;;;;;;32.50;30.25;;;;;21.56;62.09;101406.84;5094178;27;46335;-71
2023/07/16 07:49:59;;;;;;;;;29.25;28.00;;;;;21.65;62.81;101400.69;5093126;27;45269;-71
2023/07/16 07:52:26;;;;;;;;;24.67;23.33;;;;;21.52;62.72;101389.25;5097643;27;45301;-71
2023/07/16 07:54:52;;;;;;;;;30.50;29.75;;;;;21.61;62.91;101393.84;5093906;27;45533;-71
2023/07/16 07:57:20;;;;;;;;;29.00;27.00;;;;;21.68;62.90;101412.06;5088949;27;45468;-71
2023/07/16 07:59:45;;;;;;;;;10.00;8.00;;;;;21.59;62.27;101406.59;5073126;27;45436;-71
2023/07/16 08:02:11;;;;;;;;;16.75;16.75;;;;;21.54;62.03;101408.78;5090712;27;45397;-71
2023/07/16 08:04:36;;;;;;;;;22.00;21.25;;;;;21.56;61.11;101404.97;5093841;27;45628;-71
2023/07/16 08:07:02;;;;;;;;;24.25;22.00;;;;;21.70;61.16;101409.22;5094565;27;45342;-71
2023/07/16 08:09:28;;;;;;;;;34.00;31.67;;;;;21.90;60.26;101412.94;5097153;27;45616;-70
2023/07/16 08:11:56;;;;;;;;;23.00;19.67;;;;;21.99;60.44;101402.25;5102854;27;45520;-70
2023/07/16 08:14:21;;;;;;;;;38.25;34.50;;;;;22.02;60.74;101406.53;5087656;27;45279;-70
2023/07/16 08:16:47;;;;;;;;;34.50;33.00;;;;;22.04;60.01;101409.94;5093830;27;45372;-70
2023/07/16 08:19:13;;;;;;;;;50.75;42.50;;;;;22.21;58.28;101415.63;5098954;27;45251;-71
2023/07/16 08:21:38;;;;;;;;;47.50;41.50;;;;;22.45;58.29;101411.75;5064451;28;45381;-71
2023/07/16 08:24:07;;;;;;;;;46.50;39.00;;;;;22.73;58.22;101409.25;5099426;27;45452;-71
2023/07/16 08:26:32;;;;;;;;;51.25;44.25;;;;;22.84;57.28;101413.66;5100226;27;45390;-71
2023/07/16 08:29:01;;;;;;;;;42.50;37.00;;;;;22.77;55.39;101410.66;5081304;27;45398;-71
2023/07/16 08:31:35;;;;;;;;;41.67;35.67;;;;;22.79;56.14;101414.09;5102718;27;45375;-71
2023/07/16 08:34:01;;;;;;;;;26.00;26.00;;;;;23.00;55.76;101411.34;5081962;27;45463;-71
2023/07/16 08:36:26;;;;;;;;;35.33;30.67;;;;;23.08;55.14;101386.34;5084093;27;45293;-71
2023/07/16 08:38:52;;;;;;;;;32.67;32.00;;;;;23.31;54.40;101407.56;5082648;27;45314;-71
2023/07/16 08:41:18;;;;;;;;;143.33;143.33;;;;;23.41;53.08;101421.13;5093073;27;45455;-71
2023/07/16 08:43:49;;;;;;;;;45.67;36.00;;;;;23.47;53.00;101420.56;5093063;27;45448;-71
2023/07/16 08:46:15;;;;;;;;;292.20;278.40;;;;;23.27;51.07;101416.94;5095170;27;46206;-71
2023/07/16 08:48:41;;;;;;;;;111.00;109.25;;;;;23.24;52.73;101410.94;5083437;27;45216;-71
2023/07/16 08:51:09;;;;;;;;;149.33;145.67;;;;;23.56;52.94;101416.16;5083011;27;45496;-71
2023/07/16 08:53:35;;;;;;;;;135.50;130.75;;;;;23.75;51.00;101411.63;5080072;27;45468;-71
2023/07/16 08:56:02;;;;;;;;;37.67;33.00;;;;;23.90;51.47;101427.38;5090912;27;45326;-71
2023/07/16 08:58:30;;;;;;;;;138.75;133.50;;;;;24.07;50.77;101416.72;5094358;27;45417;-71
2023/07/16 09:00:56;;;;;;;;;30.50;27.50;;;;;24.27;51.46;101420.28;5084546;27;45504;-71
2023/07/16 09:03:22;;;;;;;;;103.25;102.75;;;;;24.17;49.98;101408.63;5081854;27;45596;-71
2023/07/16 09:05:47;;;;;;;;;44.25;39.00;;;;;24.14;50.78;101420.59;5086878;27;46189;-71
2023/07/16 09:08:14;;;;;;;;;40.67;35.00;;;;;24.14;49.98;101415.19;5095989;27;45438;-71
2023/07/16 09:10:42;;;;;;;;;48.00;39.33;;;;;24.07;50.03;101407.75;5082418;27;45450;-72
2023/07/16 09:13:09;;;;;;;;;46.00;39.33;;;;;24.35;50.45;101414.97;5099684;27;45247;-72
2023/07/16 09:15:35;;;;;;;;;61.25;51.50;;;;;24.41;50.33;101416.28;5080781;27;46396;-72
2023/07/16 09:18:00;;;;;;;;;60.25;49.50;;;;;24.38;50.17;101418.25;5107241;27;45298;-71
2023/07/16 09:20:27;;;;;;;;;66.75;54.00;;;;;24.41;48.88;101410.84;5091611;27;45420;-71
2023/07/16 09:22:57;;;;;;;;;64.50;52.50;;;;;24.58;50.00;101418.19;5069408;28;45319;-71
2023/07/16 09:25:29;;;;;;;;;74.50;62.00;;;;;24.59;47.69;101417.19;5088391;27;46161;-71
2023/07/16 09:27:55;;;;;;;;;68.25;56.50;;;;;24.71;47.57;101427.69;5078716;27;45330;-71
2023/07/16 09:30:20;;;;;;;;;69.25;56.50;;;;;24.95;48.48;101416.38;5091709;27;45486;-72
2023/07/16 09:32:48;;;;;;;;;105.25;100.50;;;;;25.20;45.66;101404.81;5090598;27;45790;-71
2023/07/16 09:35:15;;;;;;;;;70.00;59.00;;;;;25.38;48.42;101423.81;5081723;27;45288;-71
2023/07/16 09:37:41;;;;;;;;;81.60;72.40;;;;;25.55;45.63;101414.91;5080934;27;45342;-71
2023/07/16 09:40:09;;;;;;;;;88.25;71.25;;;;;25.73;45.25;101421.16;5085322;27;45337;-71
2023/07/16 09:42:43;;;;;;;;;174.60;113.60;;;;;25.83;46.21;101423.78;5088057;27;45318;-71
2023/07/16 09:45:17;;;;;;;;;98.50;17.75;;;;;25.79;44.21;101408.81;5091021;27;45341;-71
2023/07/16 09:47:42;;;;;;;;;196.00;43.80;;;;;25.87;45.59;101431.44;5093868;27;45433;-71
2023/07/16 09:50:08;;;;;;;;;306.50;73.25;;;;;25.76;45.53;101396.44;5093076;27;45412;-72
2023/07/16 09:52:34;;;;;;;;;52.33;6.00;;;;;25.77;43.58;101411.72;5083357;27;45475;-71
2023/07/16 09:55:02;;;;;;;;;340.25;65.50;;;;;25.88;45.55;101430.44;5081271;27;45945;-71
2023/07/16 09:57:32;;;;;;;;;0.00;0.00;;;;;25.78;43.85;101423.41;5087306;27;45270;-72
2023/07/16 10:00:04;;;;;;;;;3528.00;3528.00;;;;;25.59;45.12;101413.56;5080998;27;45317;-71
2023/07/16 10:02:31;;;;;;;;;223.25;46.50;;;;;25.69;45.51;101424.31;5087565;27;45615;-71
2023/07/16 10:04:57;;;;;;;;;290.80;57.60;;;;;25.69;45.54;101410.75;5090620;27;47131;-71
2023/07/16 10:07:26;;;;;;;;;83.75;27.25;;;;;25.71;44.13;101414.19;5086867;27;45460;-71
2023/07/16 10:09:52;;;;;;;;;254.50;44.00;;;;;25.76;45.15;101407.28;5089005;27;45218;-71
2023/07/16 10:12:19;;;;;;;;;217.00;40.75;;;;;25.84;45.51;101384.84;5080843;27;45518;-72
2023/07/16 10:14:47;;;;;;;;;289.00;92.80;;;;;26.04;45.35;101393.63;5084230;27;46122;-71
2023/07/16 10:17:17;;;;;;;;;0.50;0.00;;;;;26.20;43.35;101389.22;5084268;27;45567;-71
2023/07/16 10:20:07;;;;;;;;;85.67;16.33;;;;;26.46;44.10;101399.22;5085873;27;45357;-72
2023/07/16 10:22:43;;;;;;;;;3493.75;3493.75;;;;;26.51;43.83;101403.13;5091124;27;45471;-72
2023/07/16 10:25:10;;;;;;;;;3523.33;3523.33;;;;;26.63;43.89;101392.88;5081195;27;45493;-72
2023/07/16 10:27:36;;;;;;;;;6.50;0.50;;;;;26.60;40.23;101396.75;5091380;27;45205;-72
2023/07/16 10:30:07;;;;;;;;;3504.25;3504.25;;;;;26.69;42.27;101397.63;5081913;27;45266;-73
2023/07/16 10:32:33;;;;;;;;;3498.50;3498.50;;;;;26.80;41.54;101383.75;5093687;27;45468;-72
2023/07/16 10:34:59;;;;;;;;;3500.33;3500.33;;;;;26.84;38.73;101398.75;5093220;27;46123;-72
2023/07/16 10:37:25;;;;;;;;;3496.50;3496.50;;;;;26.91;39.46;101392.53;5084190;27;45298;-72
2023/07/16 10:39:53;;;;;;;;;3505.67;3505.67;;;;;27.01;39.60;101392.38;5084721;27;45278;-72
2023/07/16 10:42:20;;;;;;;;;3520.67;3520.67;;;;;27.09;40.26;101381.56;5092472;27;45514;-72
2023/07/16 10:44:48;;;;;;;;;3518.00;3518.00;;;;;27.16;38.48;101377.13;5084645;27;45413;-72
2023/07/16 10:47:29;;;;;;;;;3508.33;3508.33;;;;;27.10;38.94;101388.66;5093972;27;45486;-72
2023/07/16 10:49:54;;;;;;;;;3510.33;3510.33;;;;;27.13;39.47;101379.34;5085258;27;45387;-72
2023/07/16 10:52:24;;;;;;;;;3498.50;3498.50;;;;;27.35;38.66;101384.16;5088918;27;45523;-72
2023/07/16 10:54:54;;;;;;;;;3501.33;3501.33;;;;;27.60;39.39;101368.78;5082384;27;46234;-72
2023/07/16 10:57:22;;;;;;;;;3473.00;3473.00;;;;;27.62;39.16;101366.72;5087871;27;45469;-72
2023/07/16 10:59:51;;;;;;;;;3402.50;3397.00;;;;;27.56;38.22;101343.78;5097910;27;45389;-72
2023/07/16 11:02:17;;;;;;;;;3504.25;3504.25;;;;;27.86;38.40;101355.84;5089582;27;45412;-72
2023/07/16 11:04:45;;;;;;;;;3506.00;3506.00;;;;;28.06;40.18;101367.25;5085518;27;48004;-72